Impacts METAR Board
IDs:

KFLL - Ft Lauderdale-Hollyw, FL, US

Updated at: 0100 UTC 18 Aug 2018
Potential Impact None Slight Moderate High
Time 17/13Z 17/14Z 17/15Z 17/16Z 17/17Z 17/18Z 17/19Z 17/20Z 17/21Z 17/22Z 17/23Z 18/00Z 18/01Z
Temp86 87 88 89 89 90 89 87 88 86 86 85 84
Dewpt78 78 77 78 78 78 79 78 77 79 79 78 79
Altim30.15 30.16 30.18 30.18 30.17 30.16 30.14 30.14 30.13 30.13 30.10 30.12 30.13
VIS10 10 10 10 10 10 10 10 10 10 10 10 10
CIG-- -- -- -- -- -- -- 190 200 250 -- 250 250
CoverFEWSCTSCTFEWFEWSCTFEWBKNBKNBKNSCTBKNBKN
FltCatVFRVFRVFRVFRVFRVFRVFRVFRVFRVFRVFRVFRVFR
WX--------------------------
WDir11010010011090100809013080809090
WSpd13 12 13 14 10 12 12 13 11 10 11 10 10
WGst-- -- -- -- -- -- 19 21 -- -- -- -- --
Raw hourly METARs
KFLL 171253Z 11013KT 10SM FEW026 FEW110 30/26 A3015 RMK AO2 SLP209 T03000256
KFLL 171353Z 10012KT 10SM SCT026 SCT120 31/26 A3016 RMK AO2 SLP213 T03060256
KFLL 171453Z 10013KT 10SM SCT028 SCT120 31/25 A3018 RMK AO2 SLP218 T03110250 53010
KFLL 171553Z 11014KT 10SM FEW027 FEW140 32/26 A3018 RMK AO2 SLP220 T03170256
KFLL 171653Z 09010KT 10SM FEW030 FEW200 32/26 A3017 RMK AO2 SLP216 T03170256
KFLL 171753Z 10012KT 10SM FEW030 SCT250 32/26 A3016 RMK AO2 SLP211 T03220256 10322 20289 58007
KFLL 171853Z 08012G19KT 10SM FEW030 FEW250 32/26 A3014 RMK AO2 SLP207 CB DSNT SE MOV W T03170261
KFLL 171953Z 09013G21KT 10SM FEW027 BKN190 BKN250 31/26 A3014 RMK AO2 SLP204 CB DSNT SE T03060256
KFLL 172053Z 13011KT 10SM FEW027 FEW140 BKN200 BKN250 31/25 A3013 RMK AO2 SLP202 T03110250 56009
KFLL 172153Z 08010KT 10SM FEW027 FEW140 SCT190 BKN250 30/26 A3013 RMK AO2 SLP201 T03000261
KFLL 172253Z COR 08011KT 10SM FEW026 SCT200 SCT250 30/26 A3010 RMK AO2 SLP193 CB DSNT SE T03000261
KFLL 172353Z 09010KT 10SM FEW027 FEW070 SCT200 BKN250 29/26 A3012 RMK AO2 SLP198 T02940256 10322 20294 55004
KFLL 180053Z 09010KT 10SM FEW022 SCT200 BKN250 29/26 A3013 RMK AO2 SLP201 T02890261



Page loaded:  01:26 UTC  |   06:26 PM Pacific  |   07:26 PM Mountain  |   08:26 PM Central  |   09:26 PM Eastern

 

ADVISORIES

FORECASTS

FORECASTS

OBSERVATIONS

USER TOOLS

ABOUT US